Time;durP1;ratioP1;P1;durP2;ratioP2;P2;SDS_P1;SDS_P2;PMS_P1;PMS_P2;Temp;Humidity;BMP_temperature;BMP_pressure;BME280_temperature;BME280_humidity;BME280_pressure;Samples;Min_cycle;Max_cycle;Signal;HPM_P1;HPM_P2
2021/06/06 00:00:53;;;;;;;18.10;10.03;;;;;;;14.15;nan;97089.81;3506074;40;20449;-72
2021/06/06 00:03:23;;;;;;;20.50;11.23;;;;;;;14.06;nan;97081.78;3506873;40;20455;-73
2021/06/06 00:05:53;;;;;;;15.13;10.10;;;;;;;13.97;nan;97078.03;3505735;40;20911;-69
2021/06/06 00:08:22;;;;;;;16.87;10.53;;;;;;;13.94;nan;97076.47;3506457;40;20850;-72
2021/06/06 00:10:51;;;;;;;21.50;10.53;;;;;;;14.01;nan;97076.84;3504634;40;20476;-72
2021/06/06 00:13:19;;;;;;;16.47;9.80;;;;;;;14.02;nan;97075.91;3506319;40;20946;-70
2021/06/06 00:15:48;;;;;;;19.50;11.50;;;;;;;13.96;nan;97081.63;3506821;40;20454;-72
2021/06/06 00:18:16;;;;;;;19.30;11.73;;;;;;;14.00;nan;97081.28;3506145;40;20737;-73
2021/06/06 00:20:44;;;;;;;16.00;8.70;;;;;;;14.07;nan;97076.38;3505634;40;20479;-72
2021/06/06 00:23:12;;;;;;;11.60;8.10;;;;;;;14.05;nan;97075.66;3506472;40;20902;-70
2021/06/06 00:25:40;;;;;;;12.83;8.73;;;;;;;14.12;nan;97076.88;3506812;40;20439;-70
2021/06/06 00:28:08;;;;;;;12.40;8.40;;;;;;;14.04;nan;97072.19;3506077;40;20710;-70
2021/06/06 00:30:36;;;;;;;14.70;7.33;;;;;;;14.00;nan;97068.09;3506077;40;20454;-70
2021/06/06 00:33:05;;;;;;;13.33;8.20;;;;;;;13.95;nan;97067.59;3506511;40;20462;-72
2021/06/06 00:35:33;;;;;;;18.50;7.97;;;;;;;13.98;nan;97069.19;3505177;40;20476;-72
2021/06/06 00:38:01;;;;;;;15.50;8.97;;;;;;;13.78;nan;97037.28;3506392;40;20438;-70
2021/06/06 00:40:32;;;;;;;15.27;8.37;;;;;;;13.87;nan;97075.25;3506192;40;20705;-72
2021/06/06 00:43:00;;;;;;;11.43;7.40;;;;;;;13.91;nan;97075.84;3505386;40;20972;-71
2021/06/06 00:45:30;;;;;;;11.27;7.27;;;;;;;13.92;nan;97072.28;3505986;40;20458;-73
2021/06/06 00:47:58;;;;;;;14.53;8.23;;;;;;;13.88;nan;97070.81;3505853;40;20915;-71
2021/06/06 00:50:29;;;;;;;11.97;7.47;;;;;;;13.88;nan;97074.31;3505577;40;20478;-70
2021/06/06 00:52:59;;;;;;;12.83;7.83;;;;;;;13.79;nan;97074.97;3506457;40;20431;-70
2021/06/06 00:55:27;;;;;;;10.63;6.80;;;;;;;13.76;nan;97076.06;3505805;40;20470;-71
2021/06/06 00:57:56;;;;;;;8.30;5.70;;;;;;;13.71;nan;97075.53;3504339;40;20466;-70
2021/06/06 01:00:30;;;;;;;6.53;4.93;;;;;;;13.72;nan;97068.47;3504039;40;20861;-72
2021/06/06 01:02:59;;;;;;;9.67;5.70;;;;;;;13.73;nan;97075.44;3506479;40;20443;-70
2021/06/06 01:05:32;;;;;;;10.93;6.40;;;;;;;13.72;nan;97068.47;3505829;40;20925;-71
2021/06/06 01:08:01;;;;;;;10.83;6.37;;;;;;;13.66;nan;97069.75;3504851;40;20580;-72
2021/06/06 01:10:30;;;;;;;13.03;5.10;;;;;;;13.60;nan;97075.47;3506078;40;20460;-71
2021/06/06 01:13:04;;;;;;;9.50;5.87;;;;;;;13.56;nan;97069.59;3506228;40;20963;-72
2021/06/06 01:15:35;;;;;;;7.10;4.97;;;;;;;13.60;nan;97068.44;3505461;40;20802;-72
2021/06/06 01:18:10;;;;;;;8.00;5.20;;;;;;;13.59;nan;97063.28;3506327;40;20517;-73
2021/06/06 01:20:53;;;;;;;6.47;4.73;;;;;;;13.55;nan;97064.47;3505467;40;20924;-69
2021/06/06 01:24:05;;;;;;;8.33;4.47;;;;;;;13.60;nan;97068.44;3506143;40;20446;-69
2021/06/06 01:26:37;;;;;;;11.40;5.33;;;;;;;13.57;nan;97063.41;3502477;40;20472;-70
2021/06/06 01:29:12;;;;;;;7.77;5.20;;;;;;;13.59;nan;97061.50;3505118;40;20711;-71
2021/06/06 01:31:44;;;;;;;9.50;4.63;;;;;;;13.62;nan;97061.28;3496094;40;20792;-70
2021/06/06 01:34:14;;;;;;;7.60;4.53;;;;;;;13.61;nan;97058.75;3505252;40;20684;-71
2021/06/06 01:36:46;;;;;;;8.03;4.60;;;;;;;13.57;nan;97055.50;3505521;40;20827;-72
2021/06/06 01:39:16;;;;;;;8.17;5.03;;;;;;;13.70;nan;97057.22;3505458;40;20555;-72
2021/06/06 01:41:49;;;;;;;6.83;4.70;;;;;;;13.71;nan;97067.66;3506939;40;20427;-71
2021/06/06 01:44:21;;;;;;;12.23;5.53;;;;;;;13.69;nan;97045.03;3505529;40;20981;-72
2021/06/06 01:46:53;;;;;;;8.47;5.30;;;;;;;13.78;nan;97057.50;3505894;40;20434;-70
2021/06/06 01:49:22;;;;;;;8.57;4.30;;;;;;;13.82;nan;97048.44;3504961;40;20738;-72
2021/06/06 01:51:53;;;;;;;7.50;4.90;;;;;;;13.82;nan;97048.44;3504852;40;20534;-72
2021/06/06 01:54:23;;;;;;;8.30;4.43;;;;;;;13.80;nan;97056.44;3506131;40;20720;-71
2021/06/06 01:56:53;;;;;;;7.10;4.90;;;;;;;13.75;nan;97053.31;3505524;40;20450;-71
2021/06/06 01:59:26;;;;;;;13.80;5.50;;;;;;;13.86;nan;97052.50;3505871;40;20771;-72
2021/06/06 02:01:55;;;;;;;7.27;4.80;;;;;;;13.96;nan;97056.13;3504967;40;20480;-72
2021/06/06 02:04:24;;;;;;;9.70;5.90;;;;;;;13.93;nan;97055.50;3503998;40;20826;-72
2021/06/06 02:06:56;;;;;;;10.80;5.23;;;;;;;13.88;nan;97055.88;3505997;40;20580;-72
2021/06/06 02:09:28;;;;;;;8.37;5.20;;;;;;;13.87;nan;97048.91;3504878;40;21115;-70
2021/06/06 02:12:00;;;;;;;7.43;5.33;;;;;;;13.83;nan;97034.31;3505542;40;20845;-71
2021/06/06 02:14:31;;;;;;;7.27;5.10;;;;;;;13.85;nan;97051.66;3506530;40;20732;-72
2021/06/06 02:17:01;;;;;;;11.23;5.53;;;;;;;13.74;nan;97046.38;3506339;40;21215;-72
2021/06/06 02:19:31;;;;;;;9.23;5.10;;;;;;;13.75;nan;97039.31;3506827;40;20462;-72
2021/06/06 02:22:05;;;;;;;11.77;5.30;;;;;;;13.81;nan;97041.47;3505529;40;21101;-71
2021/06/06 02:24:35;;;;;;;6.77;4.30;;;;;;;13.74;nan;97037.63;3506329;40;20699;-72
2021/06/06 02:27:11;;;;;;;13.00;4.87;;;;;;;13.80;nan;97047.72;3506383;40;20564;-71
2021/06/06 02:29:48;;;;;;;6.10;3.63;;;;;;;13.76;nan;97048.88;3506304;40;20857;-70
2021/06/06 02:32:22;;;;;;;7.67;3.73;;;;;;;13.83;nan;97045.66;3505829;40;20854;-71
2021/06/06 02:35:02;;;;;;;6.20;3.43;;;;;;;13.76;nan;97041.84;3506642;40;21183;-70
2021/06/06 02:37:32;;;;;;;5.80;3.70;;;;;;;13.86;nan;97041.97;3506284;40;20454;-72
2021/06/06 02:40:07;;;;;;;4.57;3.07;;;;;;;13.77;nan;97042.66;3506389;40;20795;-72
2021/06/06 02:42:43;;;;;;;5.73;3.70;;;;;;;13.78;nan;97042.56;3507763;40;20518;-70
2021/06/06 02:45:14;;;;;;;5.10;3.37;;;;;;;13.85;nan;97040.28;3505895;40;20481;-71
2021/06/06 02:47:43;;;;;;;8.37;3.40;;;;;;;13.60;nan;97022.84;3506374;40;20619;-73
2021/06/06 02:50:15;;;;;;;5.17;3.90;;;;;;;13.71;nan;97045.75;3506744;40;20580;-71
2021/06/06 02:52:47;;;;;;;7.07;3.97;;;;;;;13.64;nan;97040.94;3507633;40;20455;-71
2021/06/06 02:55:17;;;;;;;8.23;3.97;;;;;;;13.55;nan;97044.25;3506190;40;20561;-69
2021/06/06 02:57:51;;;;;;;5.00;2.70;;;;;;;13.56;nan;97048.56;3506907;40;20459;-71
2021/06/06 03:00:24;;;;;;;5.77;4.00;;;;;;;13.67;nan;97044.31;3506539;40;20478;-70
2021/06/06 03:02:56;;;;;;;7.27;4.17;;;;;;;13.70;nan;97036.16;3506016;40;20529;-71
2021/06/06 03:05:29;;;;;;;4.70;3.50;;;;;;;13.46;nan;97029.13;3506878;40;20905;-72
2021/06/06 03:08:01;;;;;;;5.80;3.90;;;;;;;13.53;nan;97043.53;3498403;40;20451;-71
2021/06/06 03:10:31;;;;;;;4.43;3.00;;;;;;;13.58;nan;97037.91;3506955;40;20483;-72
2021/06/06 03:13:04;;;;;;;3.80;2.83;;;;;;;13.58;nan;97037.91;3507173;40;20447;-70
2021/06/06 03:15:36;;;;;;;9.50;3.67;;;;;;;13.55;nan;97033.72;3506172;40;20588;-70
2021/06/06 03:18:06;;;;;;;4.97;3.47;;;;;;;13.50;nan;97041.13;3506293;40;20900;-71
2021/06/06 03:20:37;;;;;;;9.97;4.20;;;;;;;13.50;nan;97033.22;3506711;40;20524;-70
2021/06/06 03:23:09;;;;;;;6.13;3.20;;;;;;;13.49;nan;97033.34;3507764;40;20705;-72
2021/06/06 03:25:41;;;;;;;6.60;3.40;;;;;;;13.50;nan;97032.38;3506860;40;20466;-70
2021/06/06 03:28:14;;;;;;;7.23;3.60;;;;;;;13.44;nan;97036.31;3506351;40;20596;-71
2021/06/06 03:30:44;;;;;;;6.40;3.50;;;;;;;13.38;nan;97032.34;3496719;40;20473;-70
2021/06/06 03:33:15;;;;;;;4.63;2.80;;;;;;;13.55;nan;97031.09;3506770;40;20450;-72
2021/06/06 03:35:42;;;;;;;6.27;3.63;;;;;;;13.55;nan;97035.53;3507473;40;20462;-72
2021/06/06 03:38:11;;;;;;;3.70;2.30;;;;;;;13.50;nan;97032.38;3507220;40;20839;-71
2021/06/06 03:40:43;;;;;;;3.40;2.23;;;;;;;13.52;nan;97031.31;3507283;40;20554;-72
2021/06/06 03:43:14;;;;;;;3.90;2.53;;;;;;;13.63;nan;97033.16;3508299;40;21036;-71
2021/06/06 03:45:41;;;;;;;2.77;2.13;;;;;;;13.60;nan;97031.63;3507673;40;20520;-72
2021/06/06 03:48:10;;;;;;;4.73;2.00;;;;;;;13.54;nan;97026.78;3506992;40;20846;-72
2021/06/06 03:50:40;;;;;;;2.60;1.97;;;;;;;13.54;nan;97026.78;3507490;40;20439;-73
2021/06/06 03:53:08;;;;;;;3.23;1.97;;;;;;;13.49;nan;97026.28;3506636;40;21089;-72
2021/06/06 03:55:36;;;;;;;2.90;1.90;;;;;;;13.53;nan;97026.91;3506711;40;20438;-69
2021/06/06 03:58:05;;;;;;;1.90;1.47;;;;;;;13.52;nan;97030.47;3506540;40;20674;-69
2021/06/06 04:00:36;;;;;;;2.57;1.83;;;;;;;13.43;nan;97032.00;3506502;40;20561;-70
2021/06/06 04:03:05;;;;;;;5.27;1.77;;;;;;;13.38;nan;97023.59;3506637;40;20454;-72
2021/06/06 04:05:33;;;;;;;2.10;1.57;;;;;;;13.47;nan;97027.38;3506897;40;20873;-72
2021/06/06 04:08:01;;;;;;;2.60;1.70;;;;;;;13.44;nan;97023.97;3507099;40;20819;-70
2021/06/06 04:10:29;;;;;;;1.90;1.60;;;;;;;13.42;nan;97020.63;3506748;40;20479;-71
2021/06/06 04:12:56;;;;;;;1.90;1.70;;;;;;;13.46;nan;97026.50;3507037;40;20453;-70
2021/06/06 04:15:24;;;;;;;3.07;1.53;;;;;;;13.44;nan;97025.78;3504173;40;20764;-70
2021/06/06 04:17:53;;;;;;;7.40;1.60;;;;;;;13.47;nan;97028.19;3506867;40;20458;-72
2021/06/06 04:20:21;;;;;;;2.10;1.30;;;;;;;13.43;nan;97021.50;3506334;40;20785;-72
2021/06/06 04:22:49;;;;;;;1.83;1.30;;;;;;;13.49;nan;97023.66;3506867;40;20472;-72
2021/06/06 04:25:18;;;;;;;2.50;1.53;;;;;;;13.47;nan;97025.56;3497761;40;20953;-72
2021/06/06 04:27:45;;;;;;;2.90;1.30;;;;;;;13.57;nan;97023.94;3505659;40;20478;-70
2021/06/06 04:30:14;;;;;;;5.90;1.30;;;;;;;13.52;nan;97020.78;3506127;40;20601;-73
2021/06/06 04:32:42;;;;;;;2.87;1.43;;;;;;;13.46;nan;97021.25;3506569;40;20844;-73
2021/06/06 04:35:11;;;;;;;1.43;1.30;;;;;;;13.33;nan;97009.94;3505806;40;20796;-72
2021/06/06 04:37:39;;;;;;;3.03;1.53;;;;;;;13.47;nan;97025.56;3507742;40;20823;-70
2021/06/06 04:40:09;;;;;;;1.50;1.13;;;;;;;13.45;nan;97035.38;3506465;40;20902;-72
2021/06/06 04:42:37;;;;;;;3.57;1.30;;;;;;;13.45;nan;97030.09;3507063;40;20863;-70
2021/06/06 04:45:08;;;;;;;5.97;1.40;;;;;;;13.50;nan;97033.22;3505047;40;20497;-70
2021/06/06 04:47:35;;;;;;;10.87;1.47;;;;;;;13.39;nan;97027.94;3505398;40;20552;-71
2021/06/06 04:50:05;;;;;;;5.70;2.10;;;;;;;13.51;nan;97027.03;3506576;40;20792;-72
2021/06/06 04:52:36;;;;;;;5.33;1.90;;;;;;;13.36;nan;97022.88;3506689;40;20843;-70
2021/06/06 04:55:06;;;;;;;5.97;1.67;;;;;;;13.47;nan;97028.19;3506406;40;20956;-71
2021/06/06 04:57:34;;;;;;;4.90;2.27;;;;;;;13.52;nan;97027.84;3507153;40;20554;-72
2021/06/06 05:00:01;;;;;;;4.23;2.00;;;;;;;13.59;nan;97027.28;3505871;40;20491;-73
2021/06/06 05:02:29;;;;;;;6.00;2.87;;;;;;;13.54;nan;97029.41;3506849;40;20434;-72
2021/06/06 05:04:56;;;;;;;21.03;3.40;;;;;;;13.54;nan;97028.56;3506462;40;20577;-70
2021/06/06 05:07:23;;;;;;;14.97;3.60;;;;;;;13.57;nan;97017.84;3505726;40;20901;-72
2021/06/06 05:09:52;;;;;;;5.63;3.97;;;;;;;13.51;nan;97027.03;3506310;40;20478;-71
2021/06/06 05:12:22;;;;;;;9.63;4.03;;;;;;;13.60;nan;97023.72;3505497;40;20675;-72
2021/06/06 05:14:49;;;;;;;17.53;4.47;;;;;;;13.65;nan;97021.56;3505073;40;20496;-72
2021/06/06 05:17:17;;;;;;;10.03;4.03;;;;;;;13.67;nan;97021.47;3506232;40;20450;-72
2021/06/06 05:19:44;;;;;;;11.90;5.37;;;;;;;13.56;nan;97019.59;3507059;40;20861;-71
2021/06/06 05:22:11;;;;;;;16.50;4.37;;;;;;;13.67;nan;97020.63;3505722;40;20879;-71
2021/06/06 05:24:39;;;;;;;10.70;4.53;;;;;;;13.56;nan;97021.41;3506192;40;20921;-72
2021/06/06 05:27:08;;;;;;;13.00;5.20;;;;;;;13.54;nan;97024.16;3505856;40;20462;-71
2021/06/06 05:29:36;;;;;;;11.10;4.53;;;;;;;13.53;nan;97026.91;3505797;40;20571;-72
2021/06/06 05:32:06;;;;;;;8.87;5.13;;;;;;;13.51;nan;97027.03;3505834;40;20474;-72
2021/06/06 05:34:33;;;;;;;15.33;4.73;;;;;;;13.54;nan;97029.41;3507032;40;20893;-72
2021/06/06 05:37:01;;;;;;;9.63;4.83;;;;;;;13.43;nan;97032.84;3506088;40;20787;-72
2021/06/06 05:39:28;;;;;;;9.97;4.33;;;;;;;13.48;nan;97036.94;3504442;40;20557;-72
2021/06/06 05:41:55;;;;;;;7.50;4.63;;;;;;;13.45;nan;97035.38;3505893;40;20455;-71
2021/06/06 05:44:24;;;;;;;10.63;4.50;;;;;;;13.51;nan;97029.66;3505000;40;20485;-71
2021/06/06 05:46:52;;;;;;;8.67;4.30;;;;;;;13.51;nan;97031.44;3506656;40;20445;-72
2021/06/06 05:49:19;;;;;;;10.40;5.57;;;;;;;13.44;nan;97036.31;3507621;40;20924;-72
2021/06/06 05:51:47;;;;;;;14.60;6.27;;;;;;;13.60;nan;97042.13;3508007;40;20434;-70
2021/06/06 05:54:15;;;;;;;9.77;5.67;;;;;;;13.67;nan;97033.78;3507135;40;20482;-73
2021/06/06 05:56:43;;;;;;;12.80;5.77;;;;;;;13.63;nan;97035.78;3507415;40;20469;-71
2021/06/06 05:59:10;;;;;;;12.20;5.47;;;;;;;13.67;nan;97039.03;3506833;40;20946;-73
2021/06/06 06:01:40;;;;;;;11.20;5.03;;;;;;;13.55;nan;97032.91;3507736;40;20852;-72
2021/06/06 06:04:07;;;;;;;7.97;4.80;;;;;;;13.67;nan;97034.63;3506856;40;20795;-71
2021/06/06 06:06:35;;;;;;;9.80;4.87;;;;;;;13.70;nan;97038.81;3507033;40;20553;-71
2021/06/06 06:09:03;;;;;;;8.50;5.37;;;;;;;13.76;nan;97033.94;3506643;40;20452;-72
2021/06/06 06:11:31;;;;;;;10.73;5.73;;;;;;;13.73;nan;97033.31;3507709;40;20453;-71
2021/06/06 06:13:59;;;;;;;12.30;5.83;;;;;;;13.74;nan;97034.97;3507186;40;20592;-72
2021/06/06 06:16:30;;;;;;;10.37;6.23;;;;;;;13.62;nan;97034.09;3507139;40;20903;-73
2021/06/06 06:19:01;;;;;;;9.33;6.13;;;;;;;13.76;nan;97033.94;3506592;40;20721;-72
2021/06/06 06:21:30;;;;;;;9.63;5.23;;;;;;;13.81;nan;97033.59;3508372;40;20860;-72
2021/06/06 06:23:59;;;;;;;11.73;6.30;;;;;;;13.82;nan;97037.91;3507717;40;20926;-71
2021/06/06 06:26:27;;;;;;;13.90;6.83;;;;;;;13.87;nan;97035.75;3507622;40;20525;-72
2021/06/06 06:28:55;;;;;;;11.37;5.97;;;;;;;13.99;nan;97040.09;3507124;40;20934;-71
2021/06/06 06:31:24;;;;;;;10.33;6.50;;;;;;;13.96;nan;97040.34;3506501;40;20920;-72
2021/06/06 06:33:52;;;;;;;12.37;6.90;;;;;;;14.12;nan;97040.00;3506960;40;20846;-70
2021/06/06 06:36:23;;;;;;;13.60;7.47;;;;;;;13.97;nan;97043.78;3507132;40;20565;-73
2021/06/06 06:38:51;;;;;;;14.70;7.50;;;;;;;13.95;nan;97027.28;3505090;40;20484;-71
2021/06/06 06:41:19;;;;;;;12.70;7.57;;;;;;;14.10;nan;97041.09;3507512;40;20553;-72
2021/06/06 06:43:47;;;;;;;14.47;8.00;;;;;;;14.10;nan;97044.56;3507895;40;20988;-71
2021/06/06 06:46:14;;;;;;;11.90;7.20;;;;;;;14.11;nan;97054.13;3507626;40;20668;-71
2021/06/06 06:48:42;;;;;;;9.10;6.27;;;;;;;14.03;nan;97046.81;3507684;40;20471;-71
2021/06/06 06:51:10;;;;;;;12.53;6.60;;;;;;;14.12;nan;97049.72;3507211;40;21222;-73
2021/06/06 06:53:40;;;;;;;10.13;6.67;;;;;;;14.22;nan;97055.94;3506472;40;20772;-73
2021/06/06 06:56:08;;;;;;;10.07;6.73;;;;;;;14.11;nan;97055.91;3508371;40;20462;-71
2021/06/06 06:58:35;;;;;;;10.67;6.47;;;;;;;14.04;nan;97059.03;3506949;40;20466;-70
2021/06/06 07:01:03;;;;;;;12.40;7.40;;;;;;;14.04;nan;97058.19;3507623;40;20784;-72
2021/06/06 07:03:33;;;;;;;11.73;6.70;;;;;;;14.22;nan;97061.22;3507369;40;20483;-72
2021/06/06 07:06:04;;;;;;;10.23;5.90;;;;;;;14.23;nan;97060.28;3505178;40;20820;-70
2021/06/06 07:08:34;;;;;;;10.00;5.90;;;;;;;14.26;nan;97056.56;3507287;40;20485;-70
2021/06/06 07:11:04;;;;;;;11.67;6.30;;;;;;;14.33;nan;97061.25;3507913;40;20863;-69
2021/06/06 07:13:32;;;;;;;10.23;6.30;;;;;;;14.38;nan;97052.97;3506273;40;20476;-71
2021/06/06 07:16:00;;;;;;;9.20;4.83;;;;;;;14.27;nan;97059.09;3506900;40;20447;-71
2021/06/06 07:18:28;;;;;;;11.97;5.83;;;;;;;14.27;nan;97055.59;3506891;40;20888;-70
2021/06/06 07:20:58;;;;;;;10.97;6.20;;;;;;;14.38;nan;97061.72;3506751;40;20463;-71
2021/06/06 07:23:27;;;;;;;12.73;5.80;;;;;;;14.13;nan;97062.75;3505622;40;20448;-71
2021/06/06 07:25:57;;;;;;;17.97;7.90;;;;;;;14.33;nan;97068.28;3507197;40;20541;-73
2021/06/06 07:28:31;;;;;;;14.50;8.80;;;;;;;14.27;nan;97063.50;3507165;40;20882;-72
2021/06/06 07:31:03;;;;;;;18.00;9.03;;;;;;;14.07;nan;97052.66;3507811;40;20462;-71
2021/06/06 07:33:35;;;;;;;13.93;8.90;;;;;;;14.07;nan;97068.47;3507004;40;20474;-71
2021/06/06 07:36:04;;;;;;;13.60;8.77;;;;;;;14.04;nan;97069.56;3506565;40;20780;-70
2021/06/06 07:38:32;;;;;;;15.80;8.50;;;;;;;13.93;nan;97061.63;3505831;40;20485;-72
2021/06/06 07:41:00;;;;;;;11.57;7.30;;;;;;;14.04;nan;97066.09;3507038;40;20898;-70
2021/06/06 07:43:30;;;;;;;12.20;7.03;;;;;;;14.24;nan;97067.19;3507163;40;20450;-73
2021/06/06 07:45:57;;;;;;;11.33;6.83;;;;;;;14.33;nan;97073.56;3507203;40;20846;-73
2021/06/06 07:48:25;;;;;;;12.70;6.07;;;;;;;14.39;nan;97070.47;3504633;40;20495;-71
2021/06/06 07:50:53;;;;;;;9.33;5.30;;;;;;;14.27;nan;97058.22;3506506;40;21201;-71
2021/06/06 07:53:22;;;;;;;8.53;5.10;;;;;;;14.19;nan;97059.66;3507051;40;20456;-71
2021/06/06 07:55:51;;;;;;;8.80;6.20;;;;;;;14.33;nan;97073.56;3507615;40;20934;-71
2021/06/06 07:58:21;;;;;;;6.77;5.20;;;;;;;14.38;nan;97068.78;3507147;40;20775;-71
2021/06/06 08:00:50;;;;;;;8.50;4.80;;;;;;;14.49;nan;97076.72;3500096;40;20840;-72
2021/06/06 08:03:18;;;;;;;7.27;4.40;;;;;;;14.44;nan;97068.31;3506472;40;20752;-71
2021/06/06 08:05:48;;;;;;;7.60;5.77;;;;;;;14.43;nan;97079.81;3497769;40;20772;-72
2021/06/06 08:08:16;;;;;;;7.33;4.93;;;;;;;14.12;nan;97070.78;3508003;40;21199;-70
2021/06/06 08:10:47;;;;;;;9.77;5.30;;;;;;;14.17;nan;97071.25;3508241;40;20526;-70
2021/06/06 08:13:15;;;;;;;7.83;5.50;;;;;;;14.24;nan;97072.47;3507971;40;20471;-70
2021/06/06 08:15:43;;;;;;;11.10;6.77;;;;;;;14.20;nan;97074.50;3507035;40;20444;-73
2021/06/06 08:18:20;;;;;;;10.73;6.00;;;;;;;14.35;nan;97069.03;3506793;40;20455;-72
2021/06/06 08:20:53;;;;;;;8.37;5.90;;;;;;;14.33;nan;97066.50;3507078;40;20555;-71
2021/06/06 08:23:21;;;;;;;8.37;6.00;;;;;;;14.11;nan;97059.38;3506664;40;20519;-72
2021/06/06 08:25:49;;;;;;;8.97;5.40;;;;;;;14.22;nan;97077.03;3506537;40;20994;-72
2021/06/06 08:28:18;;;;;;;11.23;7.20;;;;;;;14.46;nan;97074.28;3505985;40;20475;-70
2021/06/06 08:30:49;;;;;;;9.73;6.70;;;;;;;14.27;nan;97068.75;3507348;40;20773;-71
2021/06/06 08:33:20;;;;;;;9.73;6.67;;;;;;;14.43;nan;97064.84;3506735;40;20435;-73
2021/06/06 08:35:53;;;;;;;11.97;7.17;;;;;;;14.34;nan;97062.06;3507533;40;20467;-70
2021/06/06 08:38:21;;;;;;;11.53;7.30;;;;;;;14.28;nan;97071.28;3506177;40;20703;-71
2021/06/06 08:40:55;;;;;;;9.37;6.23;;;;;;;14.37;nan;97072.38;3505255;40;20452;-71
2021/06/06 08:43:32;;;;;;;10.17;6.57;;;;;;;14.26;nan;97057.38;3508304;40;20432;-70
2021/06/06 08:46:01;;;;;;;15.93;7.80;;;;;;;13.80;nan;97061.69;3504845;40;20451;-69
2021/06/06 08:48:30;;;;;;;13.37;7.20;;;;;;;13.97;nan;97067.50;3505777;40;20455;-70
2021/06/06 08:51:06;;;;;;;15.03;8.40;;;;;;;14.04;nan;97074.81;3506292;40;20925;-71
2021/06/06 08:53:41;;;;;;;13.20;8.50;;;;;;;14.10;nan;97072.69;3506738;40;20458;-72
2021/06/06 08:56:17;;;;;;;17.90;9.37;;;;;;;13.89;nan;97070.69;3506785;40;20813;-71
2021/06/06 08:58:49;;;;;;;17.10;8.63;;;;;;;13.84;nan;97070.22;3507161;40;20795;-69
2021/06/06 09:01:25;;;;;;;20.33;9.73;;;;;;;13.97;nan;97075.38;3507399;40;20654;-72
2021/06/06 09:03:56;;;;;;;23.43;13.70;;;;;;;13.96;nan;97071.94;3505374;40;20513;-71
2021/06/06 09:06:35;;;;;;;21.20;9.90;;;;;;;13.88;nan;97074.31;3507100;40;20459;-69
2021/06/06 09:09:04;;;;;;;16.20;9.03;;;;;;;13.91;nan;97078.50;3505670;40;20835;-72
2021/06/06 09:11:33;;;;;;;20.47;9.10;;;;;;;14.09;nan;97079.72;3507214;40;20839;-70
2021/06/06 09:14:00;;;;;;;16.60;8.93;;;;;;;14.13;nan;97077.72;3507169;40;20719;-71
2021/06/06 09:16:32;;;;;;;16.93;7.70;;;;;;;14.12;nan;97079.50;3507582;40;20901;-70
2021/06/06 09:19:06;;;;;;;16.40;8.90;;;;;;;14.09;nan;97077.09;3506501;40;20806;-70
2021/06/06 09:21:35;;;;;;;13.63;8.50;;;;;;;14.10;nan;97083.22;3508057;40;20447;-69
2021/06/06 09:24:11;;;;;;;18.03;10.20;;;;;;;14.26;nan;97075.81;3508406;40;20517;-70
2021/06/06 09:26:40;;;;;;;16.27;10.57;;;;;;;14.32;nan;97080.63;3508918;40;20997;-72
2021/06/06 09:29:18;;;;;;;22.00;11.47;;;;;;;14.22;nan;97079.66;3508520;40;20554;-72
2021/06/06 09:31:46;;;;;;;20.73;12.67;;;;;;;14.19;nan;97077.25;3509265;40;20544;-72
2021/06/06 09:34:21;;;;;;;22.07;13.03;;;;;;;14.13;nan;97081.19;3510016;40;20852;-70
2021/06/06 09:37:04;;;;;;;22.40;13.73;;;;;;;14.09;nan;97078.91;3509739;40;20761;-70
2021/06/06 09:39:37;;;;;;;28.57;14.20;;;;;;;14.28;nan;97084.44;3508249;40;20559;-71
2021/06/06 09:42:22;;;;;;;25.90;15.37;;;;;;;14.38;nan;97085.41;3509454;40;20688;-73
2021/06/06 09:45:04;;;;;;;23.33;15.07;;;;;;;14.46;nan;97090.09;3506798;40;20857;-69
2021/06/06 09:47:32;;;;;;;44.87;15.70;;;;;;;14.11;nan;97090.16;3506555;40;20528;-71
2021/06/06 09:50:17;;;;;;;26.20;15.73;;;;;;;14.20;nan;97092.09;3507950;40;20503;-71
2021/06/06 09:52:46;;;;;;;26.33;16.17;;;;;;;14.30;nan;97095.72;3506894;40;20443;-70
2021/06/06 09:55:24;;;;;;;22.37;16.20;;;;;;;14.29;nan;97083.50;3507579;40;20788;-70
2021/06/06 09:57:53;;;;;;;25.43;15.10;;;;;;;14.38;nan;97085.41;3508677;40;20462;-71
2021/06/06 10:00:35;;;;;;;25.17;16.60;;;;;;;14.38;nan;97088.06;3509452;40;20874;-71
2021/06/06 10:03:17;;;;;;;30.03;17.27;;;;;;;14.25;nan;97087.34;3508724;40;20451;-71
2021/06/06 10:05:49;;;;;;;29.27;17.87;;;;;;;14.23;nan;97090.06;3509278;40;21130;-70
2021/06/06 10:08:23;;;;;;;29.97;19.20;;;;;;;14.37;nan;97086.41;3508615;40;20455;-69
2021/06/06 10:10:53;;;;;;;36.87;20.67;;;;;;;14.23;nan;97084.81;3505390;40;20447;-70
2021/06/06 10:13:27;;;;;;;36.60;22.77;;;;;;;14.51;nan;97089.78;3508227;40;20442;-72
2021/06/06 10:16:00;;;;;;;28.90;20.50;;;;;;;14.57;nan;97086.69;3505623;40;20454;-72
2021/06/06 10:18:32;;;;;;;34.93;21.23;;;;;;;14.41;nan;97082.56;3507563;40;20474;-71
2021/06/06 10:21:07;;;;;;;36.90;21.60;;;;;;;14.53;nan;97101.88;3507540;40;20843;-70
2021/06/06 10:23:37;;;;;;;32.50;20.23;;;;;;;14.32;nan;97100.88;3507105;40;20535;-71
2021/06/06 10:26:08;;;;;;;32.40;19.23;;;;;;;14.06;nan;97102.84;3509511;40;20546;-70
2021/06/06 10:28:39;;;;;;;37.10;20.80;;;;;;;14.18;nan;97075.56;3499198;40;20817;-71
2021/06/06 10:31:10;;;;;;;33.00;18.40;;;;;;;14.33;nan;97102.53;3508720;40;20447;-71
2021/06/06 10:33:42;;;;;;;31.30;19.23;;;;;;;14.28;nan;97102.88;3508442;40;20464;-71
2021/06/06 10:36:13;;;;;;;38.00;20.43;;;;;;;14.18;nan;97104.56;3499199;40;20926;-71
2021/06/06 10:38:41;;;;;;;37.57;22.10;;;;;;;14.20;nan;97110.53;3508465;40;20577;-72
2021/06/06 10:41:13;;;;;;;42.80;22.53;;;;;;;14.21;nan;97106.94;3508804;40;20766;-70
2021/06/06 10:43:47;;;;;;;39.40;21.90;;;;;;;14.12;nan;97108.47;3508410;40;20478;-71
2021/06/06 10:46:21;;;;;;;45.33;23.47;;;;;;;14.26;nan;97098.69;3507908;40;20815;-71
2021/06/06 10:48:55;;;;;;;38.67;24.20;;;;;;;14.34;nan;97102.41;3508673;40;20849;-70
2021/06/06 10:51:33;;;;;;;44.37;24.13;;;;;;;14.38;nan;97097.75;3508903;40;20450;-72
2021/06/06 10:54:05;;;;;;;42.70;24.00;;;;;;;14.66;nan;97107.03;3506811;40;20467;-70
2021/06/06 10:56:53;;;;;;;45.33;25.63;;;;;;;14.46;nan;97094.53;3507410;40;20455;-72
2021/06/06 10:59:33;;;;;;;48.60;24.73;;;;;;;14.47;nan;97099.69;3506938;40;20466;-71
2021/06/06 11:02:04;;;;;;;63.60;30.83;;;;;;;14.24;nan;97096.19;3506908;40;21097;-70
2021/06/06 11:04:34;;;;;;;71.23;33.23;;;;;;;14.18;nan;97091.38;3508264;40;20466;-73
2021/06/06 11:07:28;;;;;;;62.73;33.30;;;;;;;14.30;nan;97098.34;3508934;40;20776;-69
2021/06/06 11:10:05;;;;;;;64.07;33.07;;;;;;;14.39;nan;97092.38;3508822;40;20951;-72
2021/06/06 11:12:34;;;;;;;75.57;35.40;;;;;;;14.44;nan;97098.16;3507898;40;21107;-71
2021/06/06 11:15:16;;;;;;;64.83;34.67;;;;;;;14.26;nan;97089.00;3508061;40;20462;-70
2021/06/06 11:17:44;;;;;;;83.00;37.07;;;;;;;14.48;nan;97087.34;3509070;40;20732;-71
2021/06/06 11:20:16;;;;;;;69.40;34.17;;;;;;;14.38;nan;97080.16;3508176;40;20474;-71
2021/06/06 11:22:48;;;;;;;72.17;36.70;;;;;;;14.50;nan;97085.44;3508309;40;20838;-70
2021/06/06 11:25:31;;;;;;;79.73;36.97;;;;;;;14.53;nan;97083.41;3507016;40;20520;-72
2021/06/06 11:28:01;;;;;;;86.77;38.47;;;;;;;14.49;nan;97079.34;3505244;40;20872;-72
2021/06/06 11:30:37;;;;;;;84.53;38.67;;;;;;;14.45;nan;97080.53;3506885;40;20475;-71
2021/06/06 11:33:07;;;;;;;87.73;41.97;;;;;;;14.33;nan;97073.56;3507628;40;20439;-69
2021/06/06 11:35:48;;;;;;;100.57;43.03;;;;;;;14.31;nan;97075.47;3506626;40;20720;-70
2021/06/06 11:38:30;;;;;;;101.77;44.50;;;;;;;14.47;nan;97078.63;3499915;40;20972;-72
2021/06/06 11:41:29;;;;;;;95.47;43.50;;;;;;;14.61;nan;97067.03;3512089;40;20920;-71
2021/06/06 11:44:21;;;;;;;96.77;46.80;;;;;;;14.59;nan;97068.97;3506348;40;20558;-70
2021/06/06 11:46:54;;;;;;;95.00;46.67;;;;;;;14.51;nan;97073.97;3507766;40;20843;-71
2021/06/06 11:49:33;;;;;;;115.07;45.90;;;;;;;14.69;nan;97069.09;3507900;40;20479;-70
2021/06/06 11:52:11;;;;;;;106.13;46.57;;;;;;;14.71;nan;97069.81;3506637;40;20829;-72
2021/06/06 11:54:51;;;;;;;103.33;47.47;;;;;;;14.64;nan;97066.78;3507802;40;20748;-72
2021/06/06 11:57:24;;;;;;;162.30;88.10;;;;;;;14.69;nan;97064.66;3507206;40;20741;-70
2021/06/06 11:59:56;;;;;;;123.90;56.53;;;;;;;14.54;nan;97069.25;3504473;40;20459;-70
2021/06/06 12:02:26;;;;;;;105.40;43.90;;;;;;;14.65;nan;97057.94;3506917;40;20843;-72